sensor_id;sensor_type;location;lat;lon;timestamp;temperature;humidity
46492;DHT22;32206;51.446;6.792;2022-11-15T00:00:50;10.50;96.00
46492;DHT22;32206;51.446;6.792;2022-11-15T00:03:17;10.50;97.40
46492;DHT22;32206;51.446;6.792;2022-11-15T00:05:43;10.60;97.70
46492;DHT22;32206;51.446;6.792;2022-11-15T00:08:09;10.90;97.80
46492;DHT22;32206;51.446;6.792;2022-11-15T00:10:36;10.70;98.10
46492;DHT22;32206;51.446;6.792;2022-11-15T00:13:09;10.60;98.00
46492;DHT22;32206;51.446;6.792;2022-11-15T00:15:37;11.00;98.70
46492;DHT22;32206;51.446;6.792;2022-11-15T00:18:04;10.70;99.30
46492;DHT22;32206;51.446;6.792;2022-11-15T00:20:31;10.70;99.90
46492;DHT22;32206;51.446;6.792;2022-11-15T00:22:56;10.60;99.90
46492;DHT22;32206;51.446;6.792;2022-11-15T00:25:22;10.60;99.90
46492;DHT22;32206;51.446;6.792;2022-11-15T00:27:47;11.10;99.90
46492;DHT22;32206;51.446;6.792;2022-11-15T00:30:13;10.70;99.90
46492;DHT22;32206;51.446;6.792;2022-11-15T00:32:39;10.80;99.90
46492;DHT22;32206;51.446;6.792;2022-11-15T00:35:05;10.90;99.90
46492;DHT22;32206;51.446;6.792;2022-11-15T00:37:30;10.80;99.90
46492;DHT22;32206;51.446;6.792;2022-11-15T00:39:56;10.90;99.90
46492;DHT22;32206;51.446;6.792;2022-11-15T00:42:21;11.00;99.90
46492;DHT22;32206;51.446;6.792;2022-11-15T00:44:47;11.10;99.90
46492;DHT22;32206;51.446;6.792;2022-11-15T00:47:13;10.90;99.90
46492;DHT22;32206;51.446;6.792;2022-11-15T00:49:38;10.90;99.90
46492;DHT22;32206;51.446;6.792;2022-11-15T00:52:04;11.00;99.90
46492;DHT22;32206;51.446;6.792;2022-11-15T00:54:29;11.40;99.90
46492;DHT22;32206;51.446;6.792;2022-11-15T00:56:55;11.20;99.90
46492;DHT22;32206;51.446;6.792;2022-11-15T00:59:20;11.10;99.90
46492;DHT22;32206;51.446;6.792;2022-11-15T01:01:46;11.10;99.90
46492;DHT22;32206;51.446;6.792;2022-11-15T01:04:11;11.20;99.90
46492;DHT22;32206;51.446;6.792;2022-11-15T01:06:37;11.10;99.90
46492;DHT22;32206;51.446;6.792;2022-11-15T01:09:03;11.20;99.90
46492;DHT22;32206;51.446;6.792;2022-11-15T01:11:28;11.20;99.90
46492;DHT22;32206;51.446;6.792;2022-11-15T01:13:55;11.50;99.90
46492;DHT22;32206;51.446;6.792;2022-11-15T01:16:20;11.30;99.90
46492;DHT22;32206;51.446;6.792;2022-11-15T01:18:46;11.50;99.90
46492;DHT22;32206;51.446;6.792;2022-11-15T01:21:14;11.30;99.90
46492;DHT22;32206;51.446;6.792;2022-11-15T01:23:40;11.30;99.90
46492;DHT22;32206;51.446;6.792;2022-11-15T01:26:09;11.30;99.90
46492;DHT22;32206;51.446;6.792;2022-11-15T01:28:36;11.40;99.90
46492;DHT22;32206;51.446;6.792;2022-11-15T01:31:06;11.50;99.90
46492;DHT22;32206;51.446;6.792;2022-11-15T01:33:34;11.50;99.90
46492;DHT22;32206;51.446;6.792;2022-11-15T01:36:07;11.60;99.90
46492;DHT22;32206;51.446;6.792;2022-11-15T01:38:34;11.60;99.90
46492;DHT22;32206;51.446;6.792;2022-11-15T01:41:00;11.70;99.90
46492;DHT22;32206;51.446;6.792;2022-11-15T01:43:28;11.60;99.90
46492;DHT22;32206;51.446;6.792;2022-11-15T01:46:00;11.70;99.90
46492;DHT22;32206;51.446;6.792;2022-11-15T01:48:34;11.70;99.90
46492;DHT22;32206;51.446;6.792;2022-11-15T01:51:01;11.60;99.90
46492;DHT22;32206;51.446;6.792;2022-11-15T01:53:28;11.70;99.90
46492;DHT22;32206;51.446;6.792;2022-11-15T01:55:55;11.60;99.90
46492;DHT22;32206;51.446;6.792;2022-11-15T01:58:21;11.70;99.90
46492;DHT22;32206;51.446;6.792;2022-11-15T02:00:48;11.70;99.90
46492;DHT22;32206;51.446;6.792;2022-11-15T02:03:15;11.70;99.90
46492;DHT22;32206;51.446;6.792;2022-11-15T02:05:41;11.70;99.90
46492;DHT22;32206;51.446;6.792;2022-11-15T02:08:08;12.00;99.90
46492;DHT22;32206;51.446;6.792;2022-11-15T02:10:34;11.80;99.90
46492;DHT22;32206;51.446;6.792;2022-11-15T02:13:00;11.70;99.90
46492;DHT22;32206;51.446;6.792;2022-11-15T02:15:32;12.00;99.90
46492;DHT22;32206;51.446;6.792;2022-11-15T02:23:31;11.80;99.90
46492;DHT22;32206;51.446;6.792;2022-11-15T02:26:13;11.80;99.90
46492;DHT22;32206;51.446;6.792;2022-11-15T02:28:54;11.80;99.90
46492;DHT22;32206;51.446;6.792;2022-11-15T02:31:40;12.20;99.90
46492;DHT22;32206;51.446;6.792;2022-11-15T02:37:06;11.90;99.90
46492;DHT22;32206;51.446;6.792;2022-11-15T02:39:39;11.90;99.90
46492;DHT22;32206;51.446;6.792;2022-11-15T02:42:13;11.90;99.90
46492;DHT22;32206;51.446;6.792;2022-11-15T02:45:03;12.00;99.90
46492;DHT22;32206;51.446;6.792;2022-11-15T02:47:34;11.90;99.90
46492;DHT22;32206;51.446;6.792;2022-11-15T02:50:10;12.00;99.90
46492;DHT22;32206;51.446;6.792;2022-11-15T02:52:36;12.10;99.90
46492;DHT22;32206;51.446;6.792;2022-11-15T02:55:02;12.30;99.90
46492;DHT22;32206;51.446;6.792;2022-11-15T03:00:19;12.00;99.90
46492;DHT22;32206;51.446;6.792;2022-11-15T03:08:40;12.10;99.90
46492;DHT22;32206;51.446;6.792;2022-11-15T03:11:12;12.10;99.90
46492;DHT22;32206;51.446;6.792;2022-11-15T03:21:37;12.20;99.90
46492;DHT22;32206;51.446;6.792;2022-11-15T03:24:06;12.30;99.90
46492;DHT22;32206;51.446;6.792;2022-11-15T03:26:35;12.30;99.90
46492;DHT22;32206;51.446;6.792;2022-11-15T03:29:11;12.40;99.90
46492;DHT22;32206;51.446;6.792;2022-11-15T03:31:45;12.30;99.90
46492;DHT22;32206;51.446;6.792;2022-11-15T03:36:44;12.30;99.90
46492;DHT22;32206;51.446;6.792;2022-11-15T03:39:11;12.40;99.90
46492;DHT22;32206;51.446;6.792;2022-11-15T03:42:28;12.40;99.90
46492;DHT22;32206;51.446;6.792;2022-11-15T03:44:55;12.50;99.90
46492;DHT22;32206;51.446;6.792;2022-11-15T03:47:31;12.50;99.90
46492;DHT22;32206;51.446;6.792;2022-11-15T03:50:10;12.50;99.90
46492;DHT22;32206;51.446;6.792;2022-11-15T03:52:39;13.00;99.90
46492;DHT22;32206;51.446;6.792;2022-11-15T03:55:08;12.60;99.90
46492;DHT22;32206;51.446;6.792;2022-11-15T03:57:33;12.60;99.90
46492;DHT22;32206;51.446;6.792;2022-11-15T03:59:59;12.60;99.90
46492;DHT22;32206;51.446;6.792;2022-11-15T04:02:24;12.60;99.90
46492;DHT22;32206;51.446;6.792;2022-11-15T04:04:50;12.90;99.90
46492;DHT22;32206;51.446;6.792;2022-11-15T04:07:15;12.60;99.90
46492;DHT22;32206;51.446;6.792;2022-11-15T04:09:41;12.60;99.90
46492;DHT22;32206;51.446;6.792;2022-11-15T04:12:25;12.70;99.90
46492;DHT22;32206;51.446;6.792;2022-11-15T04:15:11;12.70;99.90
46492;DHT22;32206;51.446;6.792;2022-11-15T04:17:42;12.70;99.90
46492;DHT22;32206;51.446;6.792;2022-11-15T04:20:27;12.70;99.90
46492;DHT22;32206;51.446;6.792;2022-11-15T04:23:19;12.70;99.90
46492;DHT22;32206;51.446;6.792;2022-11-15T04:26:09;12.80;99.90
46492;DHT22;32206;51.446;6.792;2022-11-15T04:28:35;12.80;99.90
46492;DHT22;32206;51.446;6.792;2022-11-15T04:31:21;12.80;99.90
46492;DHT22;32206;51.446;6.792;2022-11-15T04:33:47;12.80;99.90
46492;DHT22;32206;51.446;6.792;2022-11-15T04:36:12;12.80;99.90
46492;DHT22;32206;51.446;6.792;2022-11-15T04:38:56;12.80;99.90
46492;DHT22;32206;51.446;6.792;2022-11-15T04:41:22;12.80;99.90
46492;DHT22;32206;51.446;6.792;2022-11-15T04:43:47;12.80;99.90
46492;DHT22;32206;51.446;6.792;2022-11-15T04:46:13;12.90;99.90
46492;DHT22;32206;51.446;6.792;2022-11-15T04:48:38;12.80;99.90
46492;DHT22;32206;51.446;6.792;2022-11-15T04:51:04;12.80;99.90
46492;DHT22;32206;51.446;6.792;2022-11-15T04:53:30;12.80;99.90
46492;DHT22;32206;51.446;6.792;2022-11-15T04:55:55;13.10;99.90
46492;DHT22;32206;51.446;6.792;2022-11-15T04:58:21;12.90;99.90
46492;DHT22;32206;51.446;6.792;2022-11-15T05:00:46;12.90;99.90
46492;DHT22;32206;51.446;6.792;2022-11-15T05:03:12;12.90;99.90
46492;DHT22;32206;51.446;6.792;2022-11-15T05:05:57;12.90;99.90
46492;DHT22;32206;51.446;6.792;2022-11-15T05:08:23;12.90;99.90
46492;DHT22;32206;51.446;6.792;2022-11-15T05:10:49;12.90;99.90
46492;DHT22;32206;51.446;6.792;2022-11-15T05:13:15;12.90;99.90
46492;DHT22;32206;51.446;6.792;2022-11-15T05:15:40;12.80;99.90
46492;DHT22;32206;51.446;6.792;2022-11-15T05:18:06;12.80;99.90
46492;DHT22;32206;51.446;6.792;2022-11-15T05:20:31;12.80;99.90
46492;DHT22;32206;51.446;6.792;2022-11-15T05:22:57;12.80;99.90
46492;DHT22;32206;51.446;6.792;2022-11-15T05:25:23;13.10;99.90
46492;DHT22;32206;51.446;6.792;2022-11-15T05:27:48;12.80;99.90
46492;DHT22;32206;51.446;6.792;2022-11-15T05:30:15;13.00;99.90
46492;DHT22;32206;51.446;6.792;2022-11-15T05:32:41;12.80;99.90
46492;DHT22;32206;51.446;6.792;2022-11-15T05:35:08;12.80;99.90
46492;DHT22;32206;51.446;6.792;2022-11-15T05:37:37;12.80;99.90
46492;DHT22;32206;51.446;6.792;2022-11-15T05:40:03;12.80;99.90
46492;DHT22;32206;51.446;6.792;2022-11-15T05:42:29;12.70;99.90
46492;DHT22;32206;51.446;6.792;2022-11-15T05:44:56;12.80;99.90
46492;DHT22;32206;51.446;6.792;2022-11-15T05:47:26;12.70;99.90
46492;DHT22;32206;51.446;6.792;2022-11-15T05:49:53;12.70;99.90
46492;DHT22;32206;51.446;6.792;2022-11-15T05:52:23;13.00;99.90
46492;DHT22;32206;51.446;6.792;2022-11-15T05:54:51;12.70;99.90
46492;DHT22;32206;51.446;6.792;2022-11-15T05:57:17;12.80;99.90
46492;DHT22;32206;51.446;6.792;2022-11-15T05:59:43;12.80;99.90
46492;DHT22;32206;51.446;6.792;2022-11-15T06:02:10;12.70;99.90
46492;DHT22;32206;51.446;6.792;2022-11-15T06:04:36;13.00;99.90
46492;DHT22;32206;51.446;6.792;2022-11-15T06:07:01;12.70;99.90
46492;DHT22;32206;51.446;6.792;2022-11-15T06:09:27;12.70;99.90
46492;DHT22;32206;51.446;6.792;2022-11-15T06:11:53;12.80;99.90
46492;DHT22;32206;51.446;6.792;2022-11-15T06:14:18;12.80;99.90
46492;DHT22;32206;51.446;6.792;2022-11-15T06:16:44;12.60;99.90
46492;DHT22;32206;51.446;6.792;2022-11-15T06:19:09;12.70;99.90
46492;DHT22;32206;51.446;6.792;2022-11-15T06:21:35;12.60;99.90
46492;DHT22;32206;51.446;6.792;2022-11-15T06:24:00;12.60;99.90
46492;DHT22;32206;51.446;6.792;2022-11-15T06:26:26;12.60;99.90
46492;DHT22;32206;51.446;6.792;2022-11-15T06:28:52;12.60;99.90
46492;DHT22;32206;51.446;6.792;2022-11-15T06:31:18;12.60;99.90
46492;DHT22;32206;51.446;6.792;2022-11-15T06:33:43;12.60;99.90
46492;DHT22;32206;51.446;6.792;2022-11-15T06:36:11;12.60;99.90
46492;DHT22;32206;51.446;6.792;2022-11-15T06:38:39;12.60;99.90
46492;DHT22;32206;51.446;6.792;2022-11-15T06:41:08;12.60;99.90
46492;DHT22;32206;51.446;6.792;2022-11-15T06:43:35;12.60;99.90
46492;DHT22;32206;51.446;6.792;2022-11-15T06:46:02;12.90;99.90
46492;DHT22;32206;51.446;6.792;2022-11-15T06:48:29;12.60;99.90
46492;DHT22;32206;51.446;6.792;2022-11-15T06:50:57;12.60;99.90
46492;DHT22;32206;51.446;6.792;2022-11-15T06:53:23;12.70;99.90
46492;DHT22;32206;51.446;6.792;2022-11-15T06:55:49;12.60;99.90
46492;DHT22;32206;51.446;6.792;2022-11-15T06:58:15;12.60;99.90
46492;DHT22;32206;51.446;6.792;2022-11-15T07:00:41;12.60;99.90
46492;DHT22;32206;51.446;6.792;2022-11-15T07:03:07;12.60;99.90
46492;DHT22;32206;51.446;6.792;2022-11-15T07:05:34;12.80;99.90
46492;DHT22;32206;51.446;6.792;2022-11-15T07:08:00;12.50;99.90
46492;DHT22;32206;51.446;6.792;2022-11-15T07:10:26;12.60;99.90
46492;DHT22;32206;51.446;6.792;2022-11-15T07:12:53;12.60;99.90
46492;DHT22;32206;51.446;6.792;2022-11-15T07:15:21;12.60;99.90
46492;DHT22;32206;51.446;6.792;2022-11-15T07:17:47;12.60;99.90
46492;DHT22;32206;51.446;6.792;2022-11-15T07:20:13;12.70;99.90
46492;DHT22;32206;51.446;6.792;2022-11-15T07:22:43;12.70;99.90
46492;DHT22;32206;51.446;6.792;2022-11-15T07:25:10;12.60;99.90
46492;DHT22;32206;51.446;6.792;2022-11-15T07:27:37;12.60;99.90
46492;DHT22;32206;51.446;6.792;2022-11-15T07:30:03;12.70;99.90
46492;DHT22;32206;51.446;6.792;2022-11-15T07:32:29;12.60;99.90
46492;DHT22;32206;51.446;6.792;2022-11-15T07:34:55;12.60;99.90
46492;DHT22;32206;51.446;6.792;2022-11-15T07:37:20;12.70;99.90
46492;DHT22;32206;51.446;6.792;2022-11-15T07:39:46;13.00;99.90
46492;DHT22;32206;51.446;6.792;2022-11-15T07:42:11;12.70;99.90
46492;DHT22;32206;51.446;6.792;2022-11-15T07:44:56;12.70;99.90
46492;DHT22;32206;51.446;6.792;2022-11-15T07:47:21;12.80;99.90
46492;DHT22;32206;51.446;6.792;2022-11-15T07:49:47;12.70;99.90
46492;DHT22;32206;51.446;6.792;2022-11-15T07:52:13;12.70;99.90
46492;DHT22;32206;51.446;6.792;2022-11-15T07:54:39;12.70;99.90
46492;DHT22;32206;51.446;6.792;2022-11-15T07:57:05;12.70;99.20
46492;DHT22;32206;51.446;6.792;2022-11-15T07:59:32;12.80;97.00
46492;DHT22;32206;51.446;6.792;2022-11-15T08:01:58;12.80;97.60
46492;DHT22;32206;51.446;6.792;2022-11-15T08:04:23;12.70;98.90
46492;DHT22;32206;51.446;6.792;2022-11-15T08:06:49;12.60;97.70
46492;DHT22;32206;51.446;6.792;2022-11-15T08:09:14;12.40;99.30
46492;DHT22;32206;51.446;6.792;2022-11-15T08:11:40;12.30;99.90
46492;DHT22;32206;51.446;6.792;2022-11-15T08:14:05;12.10;99.90
46492;DHT22;32206;51.446;6.792;2022-11-15T08:16:31;12.40;99.90
46492;DHT22;32206;51.446;6.792;2022-11-15T08:18:57;12.10;99.90
46492;DHT22;32206;51.446;6.792;2022-11-15T08:21:23;11.70;99.90
46492;DHT22;32206;51.446;6.792;2022-11-15T08:23:48;11.90;99.90
46492;DHT22;32206;51.446;6.792;2022-11-15T08:26:14;11.70;99.90
46492;DHT22;32206;51.446;6.792;2022-11-15T08:28:40;11.90;99.90
46492;DHT22;32206;51.446;6.792;2022-11-15T08:31:05;12.00;99.90
46492;DHT22;32206;51.446;6.792;2022-11-15T08:33:32;12.00;99.90
46492;DHT22;32206;51.446;6.792;2022-11-15T08:35:59;11.60;99.90
46492;DHT22;32206;51.446;6.792;2022-11-15T08:38:26;11.60;99.90
46492;DHT22;32206;51.446;6.792;2022-11-15T08:40:58;11.70;99.90
46492;DHT22;32206;51.446;6.792;2022-11-15T08:43:24;11.80;99.90
46492;DHT22;32206;51.446;6.792;2022-11-15T08:45:50;12.10;99.90
46492;DHT22;32206;51.446;6.792;2022-11-15T08:48:15;11.70;99.90
46492;DHT22;32206;51.446;6.792;2022-11-15T08:50:41;11.80;99.90
46492;DHT22;32206;51.446;6.792;2022-11-15T08:53:10;11.80;99.90
46492;DHT22;32206;51.446;6.792;2022-11-15T08:55:39;11.90;99.90
46492;DHT22;32206;51.446;6.792;2022-11-15T08:58:05;11.90;99.90
46492;DHT22;32206;51.446;6.792;2022-11-15T09:00:31;12.00;99.90
46492;DHT22;32206;51.446;6.792;2022-11-15T09:02:56;11.90;99.90
46492;DHT22;32206;51.446;6.792;2022-11-15T09:05:22;12.00;99.90
46492;DHT22;32206;51.446;6.792;2022-11-15T09:07:52;12.00;99.90
46492;DHT22;32206;51.446;6.792;2022-11-15T09:10:17;12.00;99.90
46492;DHT22;32206;51.446;6.792;2022-11-15T09:12:43;12.00;99.90
46492;DHT22;32206;51.446;6.792;2022-11-15T09:15:09;12.00;99.90
46492;DHT22;32206;51.446;6.792;2022-11-15T09:17:34;12.00;99.90
46492;DHT22;32206;51.446;6.792;2022-11-15T09:20:00;12.10;99.90
46492;DHT22;32206;51.446;6.792;2022-11-15T09:22:26;12.50;99.90
46492;DHT22;32206;51.446;6.792;2022-11-15T09:24:51;12.40;99.90
46492;DHT22;32206;51.446;6.792;2022-11-15T09:27:17;12.50;99.90
46492;DHT22;32206;51.446;6.792;2022-11-15T09:29:42;12.60;99.70
46492;DHT22;32206;51.446;6.792;2022-11-15T09:32:08;12.80;96.80
46492;DHT22;32206;51.446;6.792;2022-11-15T09:34:34;12.80;96.30
46492;DHT22;32206;51.446;6.792;2022-11-15T09:36:59;12.80;94.60
46492;DHT22;32206;51.446;6.792;2022-11-15T09:39:25;12.80;92.90
46492;DHT22;32206;51.446;6.792;2022-11-15T09:42:12;12.80;90.20
46492;DHT22;32206;51.446;6.792;2022-11-15T09:50:50;13.40;81.20
46492;DHT22;32206;51.446;6.792;2022-11-15T09:53:36;13.10;79.30
46492;DHT22;32206;51.446;6.792;2022-11-15T09:56:38;13.10;71.80
46492;DHT22;32206;51.446;6.792;2022-11-15T10:02:01;13.00;65.60
46492;DHT22;32206;51.446;6.792;2022-11-15T10:04:31;13.00;63.10
46492;DHT22;32206;51.446;6.792;2022-11-15T10:07:09;13.00;49.50
46492;DHT22;32206;51.446;6.792;2022-11-15T10:09:45;13.00;43.30
46492;DHT22;32206;51.446;6.792;2022-11-15T10:12:13;13.10;41.20
46492;DHT22;32206;51.446;6.792;2022-11-15T10:14:39;13.20;29.30
46492;DHT22;32206;51.446;6.792;2022-11-15T10:17:47;13.20;18.00
46492;DHT22;32206;51.446;6.792;2022-11-15T10:20:26;13.20;16.90
46492;DHT22;32206;51.446;6.792;2022-11-15T10:23:05;13.20;14.90
46492;DHT22;32206;51.446;6.792;2022-11-15T10:25:35;13.30;10.40
46492;DHT22;32206;51.446;6.792;2022-11-15T10:28:15;13.30;9.10
46492;DHT22;32206;51.446;6.792;2022-11-15T10:30:43;13.50;7.60
46492;DHT22;32206;51.446;6.792;2022-11-15T10:33:33;13.50;2.90
46492;DHT22;32206;51.446;6.792;2022-11-15T10:47:04;13.80;1.00
46492;DHT22;32206;51.446;6.792;2022-11-15T10:49:32;13.80;1.00
46492;DHT22;32206;51.446;6.792;2022-11-15T10:52:18;13.90;1.00
46492;DHT22;32206;51.446;6.792;2022-11-15T10:54:48;14.00;1.00
46492;DHT22;32206;51.446;6.792;2022-11-15T10:57:29;14.00;1.00
46492;DHT22;32206;51.446;6.792;2022-11-15T11:03:06;14.40;1.00
46492;DHT22;32206;51.446;6.792;2022-11-15T11:05:37;14.60;1.00
46492;DHT22;32206;51.446;6.792;2022-11-15T11:10:58;14.60;1.00
46492;DHT22;32206;51.446;6.792;2022-11-15T11:24:43;16.00;1.00
46492;DHT22;32206;51.446;6.792;2022-11-15T11:35:55;16.20;99.90
46492;DHT22;32206;51.446;6.792;2022-11-15T11:38:51;16.10;54.70
46492;DHT22;32206;51.446;6.792;2022-11-15T11:44:07;16.20;98.10
46492;DHT22;32206;51.446;6.792;2022-11-15T11:46:41;16.30;1.00
46492;DHT22;32206;51.446;6.792;2022-11-15T11:49:12;16.50;2.10
46492;DHT22;32206;51.446;6.792;2022-11-15T11:51:55;16.20;1.00
46492;DHT22;32206;51.446;6.792;2022-11-15T11:54:48;16.00;42.10
46492;DHT22;32206;51.446;6.792;2022-11-15T12:03:09;16.30;99.90
46492;DHT22;32206;51.446;6.792;2022-11-15T12:05:40;16.50;99.90
46492;DHT22;32206;51.446;6.792;2022-11-15T12:11:36;16.70;1.00
46492;DHT22;32206;51.446;6.792;2022-11-15T12:14:09;16.60;1.00
46492;DHT22;32206;51.446;6.792;2022-11-15T12:16:38;16.80;1.00
46492;DHT22;32206;51.446;6.792;2022-11-15T12:19:07;17.30;99.90
46492;DHT22;32206;51.446;6.792;2022-11-15T12:21:50;17.70;99.90
46492;DHT22;32206;51.446;6.792;2022-11-15T12:27:17;18.10;1.00
46492;DHT22;32206;51.446;6.792;2022-11-15T12:29:51;18.00;46.30
46492;DHT22;32206;51.446;6.792;2022-11-15T12:34:50;17.70;1.00
46492;DHT22;32206;51.446;6.792;2022-11-15T12:42:39;17.40;1.00
46492;DHT22;32206;51.446;6.792;2022-11-15T12:45:25;17.50;1.00
46492;DHT22;32206;51.446;6.792;2022-11-15T12:47:51;17.90;1.00
46492;DHT22;32206;51.446;6.792;2022-11-15T12:58:46;17.90;1.00
46492;DHT22;32206;51.446;6.792;2022-11-15T13:15:00;18.30;1.00
46492;DHT22;32206;51.446;6.792;2022-11-15T13:20:07;18.60;1.00
46492;DHT22;32206;51.446;6.792;2022-11-15T13:22:59;18.40;1.00
46492;DHT22;32206;51.446;6.792;2022-11-15T13:30:53;17.40;99.90
46492;DHT22;32206;51.446;6.792;2022-11-15T13:36:03;16.90;99.90
46492;DHT22;32206;51.446;6.792;2022-11-15T13:38:32;16.40;95.40
46492;DHT22;32206;51.446;6.792;2022-11-15T13:40:59;16.00;1.00
46492;DHT22;32206;51.446;6.792;2022-11-15T13:43:35;15.90;1.00
46492;DHT22;32206;51.446;6.792;2022-11-15T13:46:17;15.90;77.90
46492;DHT22;32206;51.446;6.792;2022-11-15T13:48:44;15.90;99.90
46492;DHT22;32206;51.446;6.792;2022-11-15T13:53:53;15.90;99.90
46492;DHT22;32206;51.446;6.792;2022-11-15T13:56:20;16.00;99.90
46492;DHT22;32206;51.446;6.792;2022-11-15T13:58:46;16.10;99.90
46492;DHT22;32206;51.446;6.792;2022-11-15T14:01:17;16.10;99.90
46492;DHT22;32206;51.446;6.792;2022-11-15T14:03:54;16.30;69.80
46492;DHT22;32206;51.446;6.792;2022-11-15T14:06:22;16.40;1.00
46492;DHT22;32206;51.446;6.792;2022-11-15T14:09:04;16.40;99.90
46492;DHT22;32206;51.446;6.792;2022-11-15T14:11:53;16.30;99.90
46492;DHT22;32206;51.446;6.792;2022-11-15T14:14:24;16.20;1.00
46492;DHT22;32206;51.446;6.792;2022-11-15T14:16:52;16.00;99.90
46492;DHT22;32206;51.446;6.792;2022-11-15T14:24:36;16.00;99.90
46492;DHT22;32206;51.446;6.792;2022-11-15T14:29:46;15.90;99.90
46492;DHT22;32206;51.446;6.792;2022-11-15T14:32:26;15.80;16.50
46492;DHT22;32206;51.446;6.792;2022-11-15T14:34:59;15.70;99.90
46492;DHT22;32206;51.446;6.792;2022-11-15T14:37:26;15.60;99.90
46492;DHT22;32206;51.446;6.792;2022-11-15T14:39:53;15.40;1.00
46492;DHT22;32206;51.446;6.792;2022-11-15T14:42:19;15.30;99.90
46492;DHT22;32206;51.446;6.792;2022-11-15T14:44:45;15.20;1.00
46492;DHT22;32206;51.446;6.792;2022-11-15T14:47:10;15.20;99.90
46492;DHT22;32206;51.446;6.792;2022-11-15T14:49:36;15.10;99.90
46492;DHT22;32206;51.446;6.792;2022-11-15T14:52:01;15.10;99.90
46492;DHT22;32206;51.446;6.792;2022-11-15T14:54:27;14.90;99.90
46492;DHT22;32206;51.446;6.792;2022-11-15T14:56:53;14.80;99.90
46492;DHT22;32206;51.446;6.792;2022-11-15T14:59:18;14.70;99.90
46492;DHT22;32206;51.446;6.792;2022-11-15T15:01:44;14.60;1.00
46492;DHT22;32206;51.446;6.792;2022-11-15T15:04:10;14.60;1.00
46492;DHT22;32206;51.446;6.792;2022-11-15T15:06:36;14.70;1.00
46492;DHT22;32206;51.446;6.792;2022-11-15T15:09:02;14.60;1.00
46492;DHT22;32206;51.446;6.792;2022-11-15T15:11:31;14.70;1.00
46492;DHT22;32206;51.446;6.792;2022-11-15T15:13:57;14.70;1.00
46492;DHT22;32206;51.446;6.792;2022-11-15T15:16:25;14.60;1.00
46492;DHT22;32206;51.446;6.792;2022-11-15T15:18:51;14.60;1.00
46492;DHT22;32206;51.446;6.792;2022-11-15T15:21:25;14.60;1.00
46492;DHT22;32206;51.446;6.792;2022-11-15T15:23:53;14.50;1.00
46492;DHT22;32206;51.446;6.792;2022-11-15T15:26:23;14.50;1.00
46492;DHT22;32206;51.446;6.792;2022-11-15T15:28:48;14.50;1.00
46492;DHT22;32206;51.446;6.792;2022-11-15T15:31:16;14.60;1.00
46492;DHT22;32206;51.446;6.792;2022-11-15T15:33:42;14.40;1.00
46492;DHT22;32206;51.446;6.792;2022-11-15T15:36:12;14.40;1.00
46492;DHT22;32206;51.446;6.792;2022-11-15T15:38:38;14.30;1.00
46492;DHT22;32206;51.446;6.792;2022-11-15T15:41:12;14.30;1.00
46492;DHT22;32206;51.446;6.792;2022-11-15T15:43:38;14.30;1.00
46492;DHT22;32206;51.446;6.792;2022-11-15T15:46:07;14.30;1.00
46492;DHT22;32206;51.446;6.792;2022-11-15T15:48:33;14.30;1.00
46492;DHT22;32206;51.446;6.792;2022-11-15T15:51:02;14.30;1.00
46492;DHT22;32206;51.446;6.792;2022-11-15T15:53:28;14.30;1.00
46492;DHT22;32206;51.446;6.792;2022-11-15T15:55:54;14.30;1.00
46492;DHT22;32206;51.446;6.792;2022-11-15T15:58:19;14.30;1.00
46492;DHT22;32206;51.446;6.792;2022-11-15T16:00:45;14.20;1.00
46492;DHT22;32206;51.446;6.792;2022-11-15T16:03:11;14.20;1.00
46492;DHT22;32206;51.446;6.792;2022-11-15T16:05:36;14.20;1.00
46492;DHT22;32206;51.446;6.792;2022-11-15T16:08:02;14.60;1.00
46492;DHT22;32206;51.446;6.792;2022-11-15T16:10:33;14.20;1.00
46492;DHT22;32206;51.446;6.792;2022-11-15T16:12:59;14.20;1.00
46492;DHT22;32206;51.446;6.792;2022-11-15T16:15:27;14.10;1.00
46492;DHT22;32206;51.446;6.792;2022-11-15T16:17:56;14.20;1.00
46492;DHT22;32206;51.446;6.792;2022-11-15T16:20:40;14.20;1.00
46492;DHT22;32206;51.446;6.792;2022-11-15T16:23:10;14.20;1.00
46492;DHT22;32206;51.446;6.792;2022-11-15T16:25:44;14.40;1.00
46492;DHT22;32206;51.446;6.792;2022-11-15T16:28:24;14.20;1.00
46492;DHT22;32206;51.446;6.792;2022-11-15T16:31:04;14.10;1.00
46492;DHT22;32206;51.446;6.792;2022-11-15T16:33:30;14.10;1.00
46492;DHT22;32206;51.446;6.792;2022-11-15T16:35:56;14.30;1.00
46492;DHT22;32206;51.446;6.792;2022-11-15T16:38:21;14.30;1.00
46492;DHT22;32206;51.446;6.792;2022-11-15T16:40:47;14.40;1.00
46492;DHT22;32206;51.446;6.792;2022-11-15T16:43:13;14.40;1.00
46492;DHT22;32206;51.446;6.792;2022-11-15T16:45:38;14.50;1.00
46492;DHT22;32206;51.446;6.792;2022-11-15T16:48:04;14.30;1.00
46492;DHT22;32206;51.446;6.792;2022-11-15T16:50:32;14.30;1.00
46492;DHT22;32206;51.446;6.792;2022-11-15T16:53:04;14.10;1.00
46492;DHT22;32206;51.446;6.792;2022-11-15T16:55:29;14.10;1.00
46492;DHT22;32206;51.446;6.792;2022-11-15T16:57:55;14.10;1.00
46492;DHT22;32206;51.446;6.792;2022-11-15T17:00:26;14.10;1.00
46492;DHT22;32206;51.446;6.792;2022-11-15T17:02:52;14.10;1.00
46492;DHT22;32206;51.446;6.792;2022-11-15T17:05:20;14.00;1.00
46492;DHT22;32206;51.446;6.792;2022-11-15T17:07:47;14.00;1.00
46492;DHT22;32206;51.446;6.792;2022-11-15T17:10:20;14.00;1.00
46492;DHT22;32206;51.446;6.792;2022-11-15T17:12:46;14.00;1.00
46492;DHT22;32206;51.446;6.792;2022-11-15T17:15:12;14.00;1.00
46492;DHT22;32206;51.446;6.792;2022-11-15T17:17:38;14.00;1.00
46492;DHT22;32206;51.446;6.792;2022-11-15T17:20:05;14.10;1.00
46492;DHT22;32206;51.446;6.792;2022-11-15T17:22:35;14.00;1.00
46492;DHT22;32206;51.446;6.792;2022-11-15T17:25:01;14.10;1.00
46492;DHT22;32206;51.446;6.792;2022-11-15T17:27:26;14.00;1.00
46492;DHT22;32206;51.446;6.792;2022-11-15T17:29:52;14.00;1.00
46492;DHT22;32206;51.446;6.792;2022-11-15T17:32:17;14.00;1.00
46492;DHT22;32206;51.446;6.792;2022-11-15T17:34:43;14.00;1.00
46492;DHT22;32206;51.446;6.792;2022-11-15T17:37:09;14.30;1.00
46492;DHT22;32206;51.446;6.792;2022-11-15T17:39:34;14.00;1.00
46492;DHT22;32206;51.446;6.792;2022-11-15T17:42:00;14.00;1.00
46492;DHT22;32206;51.446;6.792;2022-11-15T17:44:25;14.10;1.00
46492;DHT22;32206;51.446;6.792;2022-11-15T17:46:51;14.10;1.00
46492;DHT22;32206;51.446;6.792;2022-11-15T17:49:16;14.10;1.00
46492;DHT22;32206;51.446;6.792;2022-11-15T17:51:42;14.40;1.00
46492;DHT22;32206;51.446;6.792;2022-11-15T17:54:10;14.20;1.00
46492;DHT22;32206;51.446;6.792;2022-11-15T17:56:38;14.20;1.00
46492;DHT22;32206;51.446;6.792;2022-11-15T17:59:04;14.20;1.00
46492;DHT22;32206;51.446;6.792;2022-11-15T18:01:32;14.20;1.00
46492;DHT22;32206;51.446;6.792;2022-11-15T18:04:00;14.20;1.00
46492;DHT22;32206;51.446;6.792;2022-11-15T18:06:28;14.20;1.00